createdAt,value
2023-04-18T00:00:52.784Z,25.60
2023-04-18T00:03:22.036Z,26.38
2023-04-18T00:05:53.461Z,24.70
2023-04-18T00:08:21.510Z,26.63
2023-04-18T00:10:49.710Z,26.10
2023-04-18T00:13:18.630Z,25.25
2023-04-18T00:15:46.443Z,24.83
2023-04-18T00:18:17.639Z,24.85
2023-04-18T00:20:46.586Z,25.67
2023-04-18T00:23:16.806Z,25.75
2023-04-18T00:25:44.640Z,25.73
2023-04-18T00:28:12.701Z,24.73
2023-04-18T00:30:43.818Z,24.33
2023-04-18T00:33:11.780Z,23.55
2023-04-18T00:35:39.755Z,23.63
2023-04-18T00:38:08.857Z,24.48
2023-04-18T00:40:39.683Z,25.95
2023-04-18T00:43:08.510Z,24.33
2023-04-18T00:45:37.235Z,24.15
2023-04-18T00:48:05.158Z,24.67
2023-04-18T00:50:33.270Z,25.08
2023-04-18T00:53:01.236Z,24.98
2023-04-18T00:55:29.953Z,24.95
2023-04-18T00:57:57.808Z,25.10
2023-04-18T01:00:26.613Z,24.92
2023-04-18T01:02:56.120Z,25.35
2023-04-18T01:05:26.555Z,25.23
2023-04-18T01:07:58.822Z,25.15
2023-04-18T01:10:27.750Z,25.60
2023-04-18T01:13:20.251Z,25.98
2023-04-18T01:15:50.886Z,25.45
2023-04-18T01:18:19.382Z,26.50
2023-04-18T01:20:53.536Z,27.00
2023-04-18T01:23:23.101Z,23.85
2023-04-18T01:25:51.064Z,24.38
2023-04-18T01:28:25.905Z,24.23
2023-04-18T01:30:54.701Z,23.98
2023-04-18T01:33:23.159Z,24.85
2023-04-18T01:35:51.137Z,23.38
2023-04-18T01:38:19.519Z,24.70
2023-04-18T01:40:48.206Z,24.45
2023-04-18T01:43:16.269Z,25.75
2023-04-18T01:45:44.285Z,23.92
2023-04-18T01:48:14.844Z,25.27
2023-04-18T01:50:43.128Z,25.63
2023-04-18T01:53:12.149Z,23.90
2023-04-18T01:55:40.627Z,23.10
2023-04-18T01:58:08.665Z,25.60
2023-04-18T02:00:38.155Z,23.77
2023-04-18T02:03:06.722Z,24.75
2023-04-18T02:05:37.683Z,24.58
2023-04-18T02:08:11.727Z,22.95
2023-04-18T02:10:40.547Z,25.15
2023-04-18T02:13:08.730Z,23.48
2023-04-18T02:15:37.189Z,23.95
2023-04-18T02:18:06.922Z,23.40
2023-04-18T02:20:38.612Z,23.27
2023-04-18T02:23:06.974Z,23.85
2023-04-18T02:25:35.041Z,23.83
2023-04-18T02:28:03.162Z,24.00
2023-04-18T02:30:32.788Z,22.95
2023-04-18T02:35:35.336Z,23.88
2023-04-18T02:38:03.399Z,22.63
2023-04-18T02:40:31.356Z,26.15
2023-04-18T02:43:01.519Z,24.55
2023-04-18T02:45:30.524Z,25.67
2023-04-18T02:48:01.883Z,23.38
2023-04-18T02:50:29.803Z,24.30
2023-04-18T02:52:58.837Z,24.52
2023-04-18T02:55:34.590Z,22.20
2023-04-18T02:58:03.135Z,23.02
2023-04-18T03:00:50.654Z,24.67
2023-04-18T03:03:42.079Z,24.27
2023-04-18T03:06:33.144Z,23.88
2023-04-18T03:09:04.642Z,24.73
2023-04-18T03:11:35.630Z,24.02
2023-04-18T03:14:06.515Z,23.30
2023-04-18T03:16:52.331Z,23.73
2023-04-18T03:19:40.138Z,24.05
2023-04-18T03:22:17.792Z,22.98
2023-04-18T03:24:59.789Z,22.80
2023-04-18T03:27:47.610Z,22.17
2023-04-18T03:30:19.854Z,21.50
2023-04-18T03:32:53.850Z,19.13
2023-04-18T03:35:22.070Z,20.80
2023-04-18T03:37:50.613Z,21.60
2023-04-18T03:40:25.171Z,21.80
2023-04-18T03:42:56.346Z,21.27
2023-04-18T03:45:24.081Z,20.88
2023-04-18T03:47:52.439Z,21.13
2023-04-18T03:50:22.304Z,22.73
2023-04-18T03:52:52.342Z,21.88
2023-04-18T03:55:20.485Z,22.30
2023-04-18T03:57:48.347Z,21.83
2023-04-18T04:00:24.582Z,22.23
2023-04-18T04:03:03.061Z,21.83
2023-04-18T04:05:34.154Z,21.58
2023-04-18T04:08:02.143Z,21.33
2023-04-18T04:10:30.273Z,22.30
2023-04-18T04:12:59.271Z,21.60
2023-04-18T04:15:29.880Z,21.15
2023-04-18T04:18:07.108Z,20.88
2023-04-18T04:20:38.580Z,20.77
2023-04-18T04:23:16.847Z,20.25
2023-04-18T04:25:53.180Z,22.00
2023-04-18T04:28:36.950Z,22.45
2023-04-18T04:31:08.430Z,21.25
2023-04-18T04:33:39.000Z,22.88
2023-04-18T04:36:16.165Z,20.63
2023-04-18T04:38:45.671Z,19.27
2023-04-18T04:41:15.647Z,21.10
2023-04-18T04:43:43.337Z,20.88
2023-04-18T04:46:14.868Z,20.80
2023-04-18T04:48:43.839Z,20.08
2023-04-18T04:51:11.472Z,20.05
2023-04-18T04:53:39.036Z,20.90
2023-04-18T04:56:09.269Z,22.58
2023-04-18T04:58:37.035Z,22.77
2023-04-18T05:01:36.890Z,21.40
2023-04-18T05:04:05.091Z,22.58
2023-04-18T05:06:32.940Z,23.60
2023-04-18T05:09:01.154Z,22.05
2023-04-18T05:11:28.770Z,22.70
2023-04-18T05:13:56.335Z,24.70
2023-04-18T05:16:24.085Z,23.70
2023-04-18T05:18:51.720Z,23.52
2023-04-18T05:21:19.691Z,25.23
2023-04-18T05:23:47.306Z,23.60
2023-04-18T05:26:14.992Z,25.00
2023-04-18T05:28:42.790Z,24.70
2023-04-18T05:31:10.618Z,24.98
2023-04-18T05:33:38.185Z,23.67
2023-04-18T05:36:07.655Z,24.30
2023-04-18T05:38:35.374Z,23.48
2023-04-18T05:41:03.105Z,23.67
2023-04-18T05:43:30.755Z,24.25
2023-04-18T05:45:58.403Z,24.40
2023-04-18T05:48:26.034Z,26.25
2023-04-18T05:50:53.945Z,23.67
2023-04-18T05:53:21.670Z,23.40
2023-04-18T05:55:50.141Z,25.88
2023-04-18T05:58:17.514Z,24.40
2023-04-18T06:00:45.088Z,23.88
2023-04-18T06:03:12.697Z,25.30
2023-04-18T06:05:41.307Z,24.80
2023-04-18T06:08:09.081Z,24.80
2023-04-18T06:10:38.961Z,24.27
2023-04-18T06:13:07.092Z,24.35
2023-04-18T06:15:35.296Z,23.52
2023-04-18T06:18:06.375Z,25.23
2023-04-18T06:20:33.873Z,25.17
2023-04-18T06:23:01.380Z,25.08
2023-04-18T06:25:28.885Z,23.48
2023-04-18T06:27:56.291Z,23.13
2023-04-18T06:30:23.669Z,24.50
2023-04-18T06:32:51.472Z,23.95
2023-04-18T06:35:19.128Z,24.50
2023-04-18T06:37:46.734Z,26.67
2023-04-18T06:40:14.188Z,23.75
2023-04-18T06:42:43.459Z,25.52
2023-04-18T06:45:12.038Z,23.50
2023-04-18T06:47:40.473Z,25.35
2023-04-18T06:50:09.016Z,24.10
2023-04-18T06:52:40.543Z,25.23
2023-04-18T06:55:09.270Z,25.30
2023-04-18T06:57:37.412Z,24.60
2023-04-18T07:00:05.642Z,24.75
2023-04-18T07:02:34.934Z,23.98
2023-04-18T07:05:02.578Z,23.38
2023-04-18T07:07:30.781Z,25.40
2023-04-18T07:09:58.311Z,24.00
2023-04-18T07:12:25.873Z,26.25
2023-04-18T07:14:54.329Z,23.55
2023-04-18T07:17:22.052Z,25.15
2023-04-18T07:19:49.512Z,23.65
2023-04-18T07:22:16.972Z,24.35
2023-04-18T07:24:44.488Z,24.52
2023-04-18T07:27:12.073Z,23.75
2023-04-18T07:29:39.577Z,23.92
2023-04-18T07:32:08.377Z,24.58
2023-04-18T07:34:37.529Z,22.63
2023-04-18T07:37:05.018Z,23.92
2023-04-18T07:39:35.912Z,22.85
2023-04-18T07:44:31.547Z,23.23
2023-04-18T07:46:59.019Z,23.23
2023-04-18T07:49:26.743Z,24.20
2023-04-18T07:51:54.208Z,21.35
2023-04-18T07:54:21.650Z,21.98
2023-04-18T07:56:49.167Z,20.42
2023-04-18T07:59:16.974Z,19.20
2023-04-18T08:01:44.827Z,19.48
2023-04-18T08:04:13.119Z,18.58
2023-04-18T08:06:41.324Z,16.88
2023-04-18T08:09:09.155Z,16.55
2023-04-18T08:11:36.734Z,17.73
2023-04-18T08:14:04.498Z,17.58
2023-04-18T08:16:32.142Z,16.50
2023-04-18T08:18:59.778Z,16.20
2023-04-18T08:21:27.292Z,16.00
2023-04-18T08:23:54.808Z,16.20
2023-04-18T08:26:22.388Z,16.10
2023-04-18T08:28:49.940Z,15.25
2023-04-18T08:31:18.254Z,16.55
2023-04-18T08:33:45.988Z,15.05
2023-04-18T08:36:13.559Z,14.65
2023-04-18T08:38:41.089Z,12.52
2023-04-18T08:41:08.588Z,13.10
2023-04-18T08:43:38.087Z,13.13
2023-04-18T08:46:05.829Z,13.45
2023-04-18T08:48:33.426Z,13.45
2023-04-18T08:51:02.068Z,12.73
2023-04-18T08:53:32.471Z,12.43
2023-04-18T08:56:01.512Z,13.05
2023-04-18T08:58:32.227Z,12.68
2023-04-18T09:00:59.841Z,13.30
2023-04-18T09:03:39.000Z,12.18
2023-04-18T09:06:16.318Z,11.57
2023-04-18T09:08:56.475Z,12.20
2023-04-18T09:11:26.225Z,11.65
2023-04-18T09:13:56.021Z,11.85
2023-04-18T09:16:23.789Z,11.40
2023-04-18T09:19:12.190Z,10.93
2023-04-18T09:21:42.156Z,10.38
2023-04-18T09:24:18.288Z,9.88
2023-04-18T09:26:45.833Z,9.82
2023-04-18T09:29:13.594Z,8.93
2023-04-18T09:32:01.630Z,9.00
2023-04-18T09:34:29.596Z,9.95
2023-04-18T09:37:13.914Z,9.50
2023-04-18T09:39:43.141Z,9.38
2023-04-18T09:42:11.290Z,8.75
2023-04-18T09:44:57.443Z,9.00
2023-04-18T09:47:25.814Z,9.90
2023-04-18T09:49:53.383Z,8.80
2023-04-18T09:52:21.348Z,9.27
2023-04-18T09:54:51.011Z,9.73
2023-04-18T09:57:18.885Z,9.65
2023-04-18T09:59:59.270Z,10.00
2023-04-18T10:02:31.415Z,10.95
2023-04-18T10:05:00.331Z,10.15
2023-04-18T10:07:28.143Z,10.02
2023-04-18T10:09:56.324Z,10.52
2023-04-18T10:12:24.568Z,10.20
2023-04-18T10:14:53.379Z,10.07
2023-04-18T10:17:21.737Z,8.70
2023-04-18T10:20:06.330Z,8.70
2023-04-18T10:22:35.403Z,7.97
2023-04-18T10:25:03.449Z,7.78
2023-04-18T10:27:49.312Z,7.18
2023-04-18T10:30:17.333Z,6.97
2023-04-18T10:32:48.149Z,6.20
2023-04-18T10:35:15.747Z,6.28
2023-04-18T10:37:50.772Z,5.93
2023-04-18T10:40:35.266Z,5.90
2023-04-18T10:43:02.826Z,5.43
2023-04-18T10:45:32.517Z,5.45
2023-04-18T10:48:21.889Z,5.65
2023-04-18T10:51:18.616Z,6.30
2023-04-18T10:53:56.465Z,5.93
2023-04-18T10:56:26.077Z,5.07
2023-04-18T10:58:54.206Z,6.43
2023-04-18T11:01:32.195Z,5.60
2023-04-18T11:04:01.302Z,5.07
2023-04-18T11:06:30.360Z,5.80
2023-04-18T11:09:14.294Z,6.07
2023-04-18T11:11:42.439Z,4.95
2023-04-18T11:14:10.036Z,5.95
2023-04-18T11:16:38.352Z,6.07
2023-04-18T11:19:26.475Z,7.25
2023-04-18T11:22:01.003Z,6.57
2023-04-18T11:24:29.470Z,7.00
2023-04-18T11:26:57.054Z,7.13
2023-04-18T11:29:24.487Z,8.75
2023-04-18T11:31:58.235Z,8.60
2023-04-18T11:34:30.754Z,9.02
2023-04-18T11:36:58.576Z,9.20
2023-04-18T11:39:26.035Z,8.70
2023-04-18T11:41:56.058Z,8.73
2023-04-18T11:44:24.881Z,8.83
2023-04-18T11:46:53.343Z,9.05
2023-04-18T11:49:31.336Z,9.73
2023-04-18T11:52:01.193Z,9.52
2023-04-18T11:54:44.377Z,9.32
2023-04-18T11:57:26.614Z,9.77
2023-04-18T11:59:59.116Z,9.82
2023-04-18T12:02:38.708Z,9.35
2023-04-18T12:05:07.178Z,10.55
2023-04-18T12:07:39.219Z,9.55
2023-04-18T12:10:30.128Z,9.88
2023-04-18T12:12:58.971Z,9.77
2023-04-18T12:15:30.297Z,9.98
2023-04-18T12:18:00.609Z,9.88
2023-04-18T12:20:39.032Z,9.18
2023-04-18T12:23:07.454Z,9.40
2023-04-18T12:25:35.080Z,8.95
2023-04-18T12:28:18.563Z,9.73
2023-04-18T12:30:45.966Z,10.05
2023-04-18T12:33:13.437Z,9.63
2023-04-18T12:35:41.178Z,8.55
2023-04-18T12:38:08.657Z,8.88
2023-04-18T12:40:38.301Z,9.63
2023-04-18T12:43:05.923Z,10.57
2023-04-18T12:45:33.464Z,9.13
2023-04-18T12:48:00.899Z,8.68
2023-04-18T12:50:28.455Z,9.38
2023-04-18T12:53:02.164Z,9.07
2023-04-18T12:55:29.763Z,8.52
2023-04-18T12:57:58.194Z,9.40
2023-04-18T13:00:28.632Z,9.23
2023-04-18T13:02:56.422Z,9.25
2023-04-18T13:05:26.164Z,8.95
2023-04-18T13:07:58.737Z,8.50
2023-04-18T13:10:32.625Z,8.13
2023-04-18T13:13:00.167Z,8.90
2023-04-18T13:15:27.758Z,8.43
2023-04-18T13:17:58.478Z,7.85
2023-04-18T13:20:26.801Z,8.80
2023-04-18T13:22:54.359Z,8.50
2023-04-18T13:25:21.901Z,8.98
2023-04-18T13:27:50.375Z,8.25
2023-04-18T13:30:18.130Z,6.85
2023-04-18T13:32:46.134Z,5.50
2023-04-18T13:35:13.751Z,7.63
2023-04-18T13:37:41.245Z,6.15
2023-04-18T13:40:09.437Z,6.63
2023-04-18T13:42:38.426Z,7.15
2023-04-18T13:45:06.419Z,7.60
2023-04-18T13:47:34.020Z,6.18
2023-04-18T13:50:01.635Z,6.63
2023-04-18T13:52:29.337Z,6.45
2023-04-18T13:54:56.788Z,7.18
2023-04-18T13:57:24.310Z,6.53
2023-04-18T13:59:51.742Z,7.47
2023-04-18T14:02:24.717Z,6.50
2023-04-18T14:04:54.780Z,6.13
2023-04-18T14:07:22.491Z,6.35
2023-04-18T14:09:50.499Z,6.35
2023-04-18T14:12:19.001Z,5.82
2023-04-18T14:14:46.435Z,5.75
2023-04-18T14:17:13.927Z,6.03
2023-04-18T14:19:41.487Z,6.35
2023-04-18T14:22:08.889Z,6.15
2023-04-18T14:24:36.605Z,7.10
2023-04-18T14:27:04.114Z,6.10
2023-04-18T14:29:31.597Z,5.68
2023-04-18T14:31:59.426Z,5.85
2023-04-18T14:34:27.489Z,6.00
2023-04-18T14:36:55.116Z,6.53
2023-04-18T14:39:22.559Z,6.20
2023-04-18T14:41:50.273Z,6.40
2023-04-18T14:44:17.850Z,7.43
2023-04-18T14:46:45.608Z,6.10
2023-04-18T14:49:13.330Z,5.88
2023-04-18T14:51:40.872Z,6.43
2023-04-18T14:54:08.349Z,6.10
2023-04-18T14:56:36.020Z,6.80
2023-04-18T14:59:03.830Z,6.72
2023-04-18T15:01:35.105Z,7.28
2023-04-18T15:04:06.297Z,6.53
2023-04-18T15:06:37.355Z,7.00
2023-04-18T15:09:04.821Z,7.53
2023-04-18T15:11:32.255Z,8.27
2023-04-18T15:13:59.623Z,7.20
2023-04-18T15:16:27.596Z,8.15
2023-04-18T15:18:55.347Z,9.25
2023-04-18T15:21:22.793Z,8.93
2023-04-18T15:23:50.428Z,9.45
2023-04-18T15:26:17.846Z,10.05
2023-04-18T15:28:45.378Z,10.45
2023-04-18T15:31:12.849Z,11.00
2023-04-18T15:33:41.318Z,11.07
2023-04-18T15:36:10.026Z,11.50
2023-04-18T15:38:37.525Z,11.90
2023-04-18T15:41:05.165Z,12.18
2023-04-18T15:43:32.621Z,12.73
2023-04-18T15:46:00.066Z,12.93
2023-04-18T15:48:29.044Z,12.10
2023-04-18T15:50:56.741Z,13.25
2023-04-18T15:53:24.270Z,12.88
2023-04-18T15:55:53.571Z,14.35
2023-04-18T15:58:22.110Z,13.48
2023-04-18T16:00:51.355Z,13.93
2023-04-18T16:03:18.975Z,12.88
2023-04-18T16:05:47.668Z,13.20
2023-04-18T16:08:15.264Z,14.73
2023-04-18T16:10:43.076Z,14.13
2023-04-18T16:13:10.552Z,14.95
2023-04-18T16:15:41.930Z,15.13
2023-04-18T16:18:09.869Z,14.80
2023-04-18T16:20:37.571Z,16.42
2023-04-18T16:23:04.961Z,15.57
2023-04-18T16:25:32.604Z,15.20
2023-04-18T16:28:00.014Z,16.42
2023-04-18T16:30:27.460Z,16.60
2023-04-18T16:32:54.997Z,14.90
2023-04-18T16:35:22.792Z,14.95
2023-04-18T16:37:50.623Z,16.00
2023-04-18T16:40:18.322Z,14.25
2023-04-18T16:42:45.910Z,13.52
2023-04-18T16:45:13.696Z,14.82
2023-04-18T16:47:41.369Z,16.48
2023-04-18T16:50:09.519Z,14.85
2023-04-18T16:52:37.092Z,13.82
2023-04-18T16:55:05.087Z,14.40
2023-04-18T16:57:32.813Z,15.20
2023-04-18T17:00:02.579Z,14.57
2023-04-18T17:02:32.730Z,14.70
2023-04-18T17:05:00.621Z,14.40
2023-04-18T17:07:28.219Z,14.32
2023-04-18T17:09:55.691Z,15.93
2023-04-18T17:12:23.280Z,14.60
2023-04-18T17:14:50.717Z,14.57
2023-04-18T17:17:18.235Z,15.20
2023-04-18T17:19:46.453Z,16.55
2023-04-18T17:22:14.390Z,15.25
2023-04-18T17:24:41.802Z,14.90
2023-04-18T17:27:09.197Z,14.82
2023-04-18T17:29:37.180Z,14.52
2023-04-18T17:32:05.362Z,15.32
2023-04-18T17:34:32.934Z,13.27
2023-04-18T17:37:00.479Z,14.43
2023-04-18T17:39:32.262Z,14.20
2023-04-18T17:42:00.999Z,13.95
2023-04-18T17:44:28.762Z,13.65
2023-04-18T17:46:56.182Z,14.70
2023-04-18T17:49:23.720Z,13.38
2023-04-18T17:51:51.268Z,14.38
2023-04-18T17:54:18.724Z,14.45
2023-04-18T17:56:46.452Z,13.40
2023-04-18T17:59:14.334Z,13.80
2023-04-18T18:01:42.042Z,13.00
2023-04-18T18:04:10.099Z,12.88
2023-04-18T18:06:37.830Z,12.25
2023-04-18T18:09:05.670Z,14.02
2023-04-18T18:11:33.107Z,13.77
2023-04-18T18:14:01.525Z,12.85
2023-04-18T18:16:28.921Z,13.68
2023-04-18T18:18:56.529Z,13.48
2023-04-18T18:21:23.950Z,12.38
2023-04-18T18:23:51.504Z,14.10
2023-04-18T18:26:19.542Z,12.88
2023-04-18T18:28:47.099Z,13.30
2023-04-18T18:31:14.740Z,13.07
2023-04-18T18:33:42.331Z,13.15
2023-04-18T18:36:09.775Z,13.30
2023-04-18T18:38:37.234Z,12.30
2023-04-18T18:41:05.669Z,13.38
2023-04-18T18:43:33.640Z,12.40
2023-04-18T18:46:01.152Z,13.00
2023-04-18T18:48:28.766Z,14.02
2023-04-18T18:50:57.220Z,14.18
2023-04-18T18:53:24.727Z,12.80
2023-04-18T18:55:52.277Z,13.68
2023-04-18T18:58:19.856Z,13.35
2023-04-18T19:00:47.254Z,13.35
2023-04-18T19:03:16.793Z,13.80
2023-04-18T19:05:45.153Z,13.48
2023-04-18T19:08:12.752Z,13.18
2023-04-18T19:10:41.984Z,12.93
2023-04-18T19:13:10.337Z,12.52
2023-04-18T19:15:38.651Z,13.98
2023-04-18T19:18:06.245Z,14.82
2023-04-18T19:20:33.951Z,12.68
2023-04-18T19:23:01.579Z,13.63
2023-04-18T19:25:29.202Z,14.50
2023-04-18T19:27:56.781Z,14.82
2023-04-18T19:30:25.130Z,16.73
2023-04-18T19:32:52.840Z,15.10
2023-04-18T19:35:20.516Z,16.10
2023-04-18T19:37:48.050Z,16.45
2023-04-18T19:40:18.774Z,16.17
2023-04-18T19:42:46.624Z,16.27
2023-04-18T19:45:15.201Z,16.05
2023-04-18T19:47:44.394Z,15.30
2023-04-18T19:50:11.901Z,15.95
2023-04-18T19:52:39.486Z,16.38
2023-04-18T19:55:07.519Z,16.38
2023-04-18T19:57:41.586Z,15.40
2023-04-18T20:00:13.115Z,14.77
2023-04-18T20:02:42.626Z,14.23
2023-04-18T20:05:10.432Z,13.43
2023-04-18T20:07:38.608Z,13.35
2023-04-18T20:10:08.167Z,14.20
2023-04-18T20:12:35.782Z,13.77
2023-04-18T20:15:03.464Z,14.57
2023-04-18T20:17:34.399Z,14.30
2023-04-18T20:20:02.211Z,14.02
2023-04-18T20:22:29.784Z,14.35
2023-04-18T20:24:57.364Z,15.02
2023-04-18T20:27:24.856Z,14.85
2023-04-18T20:29:52.638Z,14.45
2023-04-18T20:32:20.540Z,15.90
2023-04-18T20:34:48.555Z,16.77
2023-04-18T20:37:19.716Z,14.90
2023-04-18T20:39:47.529Z,16.38
2023-04-18T20:42:15.837Z,16.23
2023-04-18T20:44:44.726Z,19.10
2023-04-18T20:47:13.864Z,17.85
2023-04-18T20:49:42.936Z,16.23
2023-04-18T20:52:10.659Z,15.98
2023-04-18T20:54:38.176Z,18.25
2023-04-18T20:57:05.781Z,16.13
2023-04-18T20:59:33.318Z,16.27
2023-04-18T21:02:01.007Z,17.60
2023-04-18T21:04:29.363Z,16.60
2023-04-18T21:06:56.819Z,14.90
2023-04-18T21:09:24.258Z,16.08
2023-04-18T21:11:51.656Z,17.10
2023-04-18T21:14:19.945Z,16.75
2023-04-18T21:16:47.327Z,15.60
2023-04-18T21:19:15.162Z,16.33
2023-04-18T21:21:43.671Z,15.98
2023-04-18T21:24:11.237Z,17.15
2023-04-18T21:26:38.643Z,16.13
2023-04-18T21:29:06.245Z,16.63
2023-04-18T21:31:34.817Z,17.05
2023-04-18T21:34:04.204Z,16.63
2023-04-18T21:36:32.288Z,15.48
2023-04-18T21:39:04.028Z,16.60
2023-04-18T21:41:31.454Z,16.98
2023-04-18T21:43:58.892Z,16.55
2023-04-18T21:46:26.535Z,16.85
2023-04-18T21:48:54.137Z,17.70
2023-04-18T21:51:21.940Z,18.67
2023-04-18T21:53:49.515Z,17.25
2023-04-18T21:56:17.208Z,16.65
2023-04-18T21:58:44.711Z,17.20
2023-04-18T22:01:12.271Z,18.05
2023-04-18T22:03:40.083Z,16.20
2023-04-18T22:06:07.956Z,16.25
2023-04-18T22:08:36.042Z,16.88
2023-04-18T22:11:04.753Z,17.60
2023-04-18T22:13:35.613Z,17.02
2023-04-18T22:16:03.833Z,17.67
2023-04-18T22:18:37.770Z,17.25
2023-04-18T22:21:06.119Z,18.30
2023-04-18T22:23:33.633Z,17.88
2023-04-18T22:26:01.299Z,18.48
2023-04-18T22:28:28.949Z,17.95
2023-04-18T22:30:57.030Z,18.98
2023-04-18T22:33:24.785Z,18.85
2023-04-18T22:35:52.648Z,19.75
2023-04-18T22:38:20.128Z,19.17
2023-04-18T22:40:47.709Z,19.05
2023-04-18T22:43:15.306Z,20.92
2023-04-18T22:45:42.754Z,20.00
2023-04-18T22:48:12.698Z,17.80
2023-04-18T22:50:43.138Z,18.70
2023-04-18T22:53:11.305Z,17.35
2023-04-18T22:55:40.498Z,17.48
2023-04-18T22:58:08.710Z,18.23
2023-04-18T23:00:36.384Z,17.30
2023-04-18T23:03:04.558Z,19.35
2023-04-18T23:05:32.238Z,18.00
2023-04-18T23:08:00.580Z,18.80
2023-04-18T23:10:28.381Z,17.83
2023-04-18T23:12:56.337Z,18.77
2023-04-18T23:15:24.552Z,19.63
2023-04-18T23:17:53.078Z,18.27
2023-04-18T23:20:21.302Z,20.27
2023-04-18T23:22:51.499Z,18.83
2023-04-18T23:25:22.415Z,17.92
2023-04-18T23:27:49.891Z,19.88
2023-04-18T23:30:17.338Z,20.40
2023-04-18T23:32:44.785Z,19.35
2023-04-18T23:35:12.361Z,21.55
2023-04-18T23:37:40.202Z,22.10
2023-04-18T23:40:08.640Z,20.70
2023-04-18T23:42:36.316Z,20.75
2023-04-18T23:45:05.805Z,21.38
2023-04-18T23:47:34.787Z,21.23
2023-04-18T23:50:02.589Z,22.08
2023-04-18T23:52:30.884Z,21.73
2023-04-18T23:55:00.706Z,20.45
2023-04-18T23:57:28.533Z,23.10
2023-04-18T23:59:55.946Z,21.38
